createdAt,value
2019-02-10T00:01:06.723Z,7.6
2019-02-10T00:02:16.028Z,7.6
2019-02-10T00:03:25.331Z,7.7
2019-02-10T00:04:34.735Z,7.6
2019-02-10T00:05:43.948Z,7.6
2019-02-10T00:06:53.243Z,7.6
2019-02-10T00:08:02.564Z,7.6
2019-02-10T00:09:11.894Z,7.6
2019-02-10T00:10:21.162Z,7.6
2019-02-10T00:11:30.459Z,7.5
2019-02-10T00:12:39.783Z,7.6
2019-02-10T00:13:49.073Z,7.6
2019-02-10T00:14:58.409Z,7.6
2019-02-10T00:16:07.700Z,7.5
2019-02-10T00:17:16.984Z,7.5
2019-02-10T00:18:26.335Z,7.5
2019-02-10T00:19:35.599Z,7.5
2019-02-10T00:20:44.962Z,7.4
2019-02-10T00:21:54.201Z,7.5
2019-02-10T00:23:03.501Z,7.4
2019-02-10T00:24:12.809Z,7.4
2019-02-10T00:25:22.207Z,7.5
2019-02-10T00:26:31.412Z,7.4
2019-02-10T00:27:40.714Z,7.4
2019-02-10T00:28:50.018Z,7.4
2019-02-10T00:29:59.344Z,7.5
2019-02-10T00:31:08.615Z,7.4
2019-02-10T00:32:17.907Z,7.4
2019-02-10T00:33:27.222Z,7.4
2019-02-10T00:34:36.516Z,7.4
2019-02-10T00:35:45.814Z,7.4
2019-02-10T00:36:55.101Z,7.4
2019-02-10T00:38:04.405Z,7.4
2019-02-10T00:39:13.698Z,7.4
2019-02-10T00:40:23.026Z,7.4
2019-02-10T00:41:32.354Z,7.4
2019-02-10T00:42:41.643Z,7.3
2019-02-10T00:43:50.893Z,7.3
2019-02-10T00:45:00.242Z,7.3
2019-02-10T00:46:09.492Z,7.3
2019-02-10T00:47:18.783Z,7.3
2019-02-10T00:48:28.122Z,7.2
2019-02-10T00:49:37.384Z,7.3
2019-02-10T00:50:46.716Z,7.2
2019-02-10T00:51:56.002Z,7.2
2019-02-10T00:53:05.264Z,7.2
2019-02-10T00:54:14.571Z,7.2
2019-02-10T00:55:23.854Z,7.2
2019-02-10T00:56:33.212Z,7.2
2019-02-10T00:57:42.444Z,7.1
2019-02-10T00:58:51.741Z,7.1
2019-02-10T01:00:01.042Z,7.1
2019-02-10T01:01:10.339Z,7.1
2019-02-10T01:02:19.626Z,7
2019-02-10T01:03:28.935Z,7
2019-02-10T01:04:38.242Z,7
2019-02-10T01:05:47.545Z,7
2019-02-10T01:06:56.824Z,7
2019-02-10T01:08:06.108Z,6.9
2019-02-10T01:09:15.423Z,6.9
2019-02-10T01:10:24.733Z,6.9
2019-02-10T01:11:33.995Z,6.9
2019-02-10T01:12:43.257Z,6.9
2019-02-10T01:13:52.549Z,6.9
2019-02-10T01:15:01.873Z,6.9
2019-02-10T01:16:11.116Z,6.8
2019-02-10T01:17:20.406Z,6.9
2019-02-10T01:18:29.705Z,6.8
2019-02-10T01:19:38.990Z,6.8
2019-02-10T01:20:48.269Z,6.8
2019-02-10T01:21:57.555Z,6.8
2019-02-10T01:23:06.844Z,6.8
2019-02-10T01:24:16.190Z,6.7
2019-02-10T01:25:25.401Z,6.7
2019-02-10T01:26:34.692Z,6.7
2019-02-10T01:27:43.979Z,6.6
2019-02-10T01:28:53.276Z,6.6
2019-02-10T01:30:02.584Z,6.6
2019-02-10T01:31:11.829Z,6.6
2019-02-10T01:32:21.110Z,6.6
2019-02-10T01:33:30.394Z,6.5
2019-02-10T01:34:39.672Z,6.5
2019-02-10T01:35:48.984Z,6.5
2019-02-10T01:36:58.235Z,6.5
2019-02-10T01:38:07.554Z,6.5
2019-02-10T01:39:16.878Z,6.5
2019-02-10T01:40:26.070Z,6.5
2019-02-10T01:41:35.659Z,6.4
2019-02-10T01:42:44.614Z,6.4
2019-02-10T01:43:53.927Z,6.4
2019-02-10T01:45:03.183Z,6.4
2019-02-10T01:46:12.475Z,6.4
2019-02-10T01:47:21.725Z,6.4
2019-02-10T01:48:31.000Z,6.4
2019-02-10T01:49:40.332Z,6.4
2019-02-10T01:50:49.643Z,6.3
2019-02-10T01:51:58.823Z,6.4
2019-02-10T01:53:08.097Z,6.4
2019-02-10T01:54:17.393Z,6.3
2019-02-10T01:55:26.643Z,6.3
2019-02-10T01:56:35.919Z,6.3
2019-02-10T01:57:45.190Z,6.3
2019-02-10T01:58:54.464Z,6.3
2019-02-10T02:00:03.829Z,6.3
2019-02-10T02:01:12.997Z,6.2
2019-02-10T02:02:22.264Z,6.2
2019-02-10T02:03:31.589Z,6.2
2019-02-10T02:04:40.821Z,6.3
2019-02-10T02:05:50.087Z,6.2
2019-02-10T02:06:59.353Z,6.3
2019-02-10T02:08:08.634Z,6.3
2019-02-10T02:09:17.890Z,6.2
2019-02-10T02:10:27.166Z,6.2
2019-02-10T02:11:36.433Z,6.2
2019-02-10T02:12:45.722Z,6.2
2019-02-10T02:13:54.975Z,6.2
2019-02-10T02:15:04.237Z,6.2
2019-02-10T02:16:13.547Z,6.2
2019-02-10T02:17:22.783Z,6.2
2019-02-10T02:18:32.106Z,6.1
2019-02-10T02:19:41.352Z,6.2
2019-02-10T02:20:50.578Z,6.2
2019-02-10T02:21:59.851Z,6.1
2019-02-10T02:23:09.113Z,6.1
2019-02-10T02:24:18.559Z,6.1
2019-02-10T02:25:29.270Z,6.1
2019-02-10T02:26:38.532Z,6.1
2019-02-10T02:27:47.787Z,6.1
2019-02-10T02:28:57.057Z,6.1
2019-02-10T02:30:06.321Z,6.1
2019-02-10T02:31:15.588Z,6.1
2019-02-10T02:32:24.851Z,6
2019-02-10T02:33:34.116Z,6.1
2019-02-10T02:34:43.381Z,6
2019-02-10T02:35:52.649Z,6.1
2019-02-10T02:37:07.787Z,6.1
2019-02-10T02:38:11.172Z,6
2019-02-10T02:39:20.434Z,6
2019-02-10T02:40:29.700Z,6
2019-02-10T02:41:38.970Z,6
2019-02-10T02:42:48.225Z,6
2019-02-10T02:43:57.494Z,6
2019-02-10T02:45:07.870Z,6
2019-02-10T02:46:16.021Z,6
2019-02-10T02:47:25.290Z,5.9
2019-02-10T02:48:34.541Z,6
2019-02-10T02:49:43.806Z,5.9
2019-02-10T02:50:53.060Z,5.9
2019-02-10T02:52:02.372Z,6
2019-02-10T02:53:11.665Z,6
2019-02-10T02:54:20.850Z,6
2019-02-10T02:55:30.129Z,5.9
2019-02-10T02:56:39.395Z,5.9
2019-02-10T02:57:48.762Z,6
2019-02-10T02:58:57.900Z,5.9
2019-02-10T03:00:07.230Z,5.9
2019-02-10T03:01:16.420Z,6
2019-02-10T03:02:25.674Z,6
2019-02-10T03:03:34.936Z,5.9
2019-02-10T03:04:44.213Z,6
2019-02-10T03:05:53.474Z,6
2019-02-10T03:07:02.765Z,5.9
2019-02-10T03:08:11.994Z,6
2019-02-10T03:09:21.264Z,5.9
2019-02-10T03:10:30.500Z,5.9
2019-02-10T03:11:39.749Z,6
2019-02-10T03:12:49.057Z,5.9
2019-02-10T03:13:58.282Z,6
2019-02-10T03:15:07.534Z,5.9
2019-02-10T03:16:16.832Z,5.9
2019-02-10T03:17:26.063Z,5.9
2019-02-10T03:18:35.311Z,5.9
2019-02-10T03:19:44.563Z,5.9
2019-02-10T03:20:53.841Z,5.8
2019-02-10T03:22:03.117Z,5.9
2019-02-10T03:23:12.350Z,5.9
2019-02-10T03:24:21.628Z,5.8
2019-02-10T03:25:30.935Z,5.8
2019-02-10T03:26:40.130Z,5.9
2019-02-10T03:27:49.383Z,5.9
2019-02-10T03:28:58.646Z,5.9
2019-02-10T03:30:07.925Z,5.8
2019-02-10T03:31:17.172Z,5.8
2019-02-10T03:32:26.491Z,5.9
2019-02-10T03:33:35.683Z,5.9
2019-02-10T03:34:44.933Z,5.9
2019-02-10T03:35:54.214Z,5.8
2019-02-10T03:37:03.465Z,5.8
2019-02-10T03:38:12.712Z,5.8
2019-02-10T03:39:21.979Z,5.8
2019-02-10T03:40:31.324Z,5.8
2019-02-10T03:41:40.489Z,5.8
2019-02-10T03:42:49.797Z,5.8
2019-02-10T03:43:59.019Z,5.8
2019-02-10T03:45:08.268Z,5.8
2019-02-10T03:46:17.564Z,5.7
2019-02-10T03:47:26.809Z,5.7
2019-02-10T03:48:36.042Z,5.7
2019-02-10T03:49:45.286Z,5.7
2019-02-10T03:50:54.544Z,5.7
2019-02-10T03:52:03.812Z,5.7
2019-02-10T03:53:13.056Z,5.7
2019-02-10T03:54:22.305Z,5.7
2019-02-10T03:55:31.599Z,5.6
2019-02-10T03:56:40.841Z,5.6
2019-02-10T03:57:50.071Z,5.6
2019-02-10T03:58:59.321Z,5.6
2019-02-10T04:00:08.613Z,5.6
2019-02-10T04:01:18.055Z,5.6
2019-02-10T04:02:27.101Z,5.6
2019-02-10T04:03:36.361Z,5.6
2019-02-10T04:04:45.600Z,5.6
2019-02-10T04:05:54.845Z,5.6
2019-02-10T04:07:04.123Z,5.6
2019-02-10T04:08:13.362Z,5.6
2019-02-10T04:09:22.603Z,5.6
2019-02-10T04:10:31.854Z,5.5
2019-02-10T04:11:41.121Z,5.6
2019-02-10T04:12:50.357Z,5.6
2019-02-10T04:13:59.611Z,5.6
2019-02-10T04:15:08.919Z,5.6
2019-02-10T04:16:18.123Z,5.6
2019-02-10T04:17:27.365Z,5.6
2019-02-10T04:18:36.662Z,5.6
2019-02-10T04:19:45.871Z,5.6
2019-02-10T04:20:55.120Z,5.5
2019-02-10T04:22:04.374Z,5.5
2019-02-10T04:23:13.616Z,5.5
2019-02-10T04:24:22.876Z,5.5
2019-02-10T04:25:32.167Z,5.5
2019-02-10T04:26:41.405Z,5.6
2019-02-10T04:27:50.683Z,5.5
2019-02-10T04:28:59.937Z,5.5
2019-02-10T04:30:09.375Z,5.6
2019-02-10T04:31:18.393Z,5.5
2019-02-10T04:32:27.669Z,5.5
2019-02-10T04:33:36.912Z,5.5
2019-02-10T04:34:46.201Z,5.5
2019-02-10T04:35:55.383Z,5.5
2019-02-10T04:37:04.634Z,5.5
2019-02-10T04:38:13.891Z,5.6
2019-02-10T04:39:23.149Z,5.5
2019-02-10T04:40:32.411Z,5.5
2019-02-10T04:41:41.625Z,5.5
2019-02-10T04:42:50.898Z,5.5
2019-02-10T04:44:00.165Z,5.5
2019-02-10T04:45:09.417Z,5.4
2019-02-10T04:46:18.655Z,5.5
2019-02-10T04:47:27.886Z,5.5
2019-02-10T04:48:37.121Z,5.5
2019-02-10T04:49:46.393Z,5.4
2019-02-10T04:50:55.651Z,5.5
2019-02-10T04:52:04.868Z,5.5
2019-02-10T04:53:14.125Z,5.4
2019-02-10T04:54:23.376Z,5.4
2019-02-10T04:55:32.672Z,5.4
2019-02-10T04:56:41.864Z,5.4
2019-02-10T04:57:51.176Z,5.4
2019-02-10T04:59:00.367Z,5.5
2019-02-10T05:00:09.633Z,5.4
2019-02-10T05:01:18.881Z,5.4
2019-02-10T05:02:28.101Z,5.4
2019-02-10T05:03:37.379Z,5.4
2019-02-10T05:04:46.621Z,5.4
2019-02-10T05:05:55.844Z,5.4
2019-02-10T05:07:05.086Z,5.4
2019-02-10T05:08:14.351Z,5.4
2019-02-10T05:09:23.593Z,5.4
2019-02-10T05:10:32.822Z,5.4
2019-02-10T05:11:42.110Z,5.4
2019-02-10T05:12:51.325Z,5.4
2019-02-10T05:14:00.568Z,5.4
2019-02-10T05:15:09.820Z,5.4
2019-02-10T05:16:19.095Z,5.4
2019-02-10T05:17:28.365Z,5.4
2019-02-10T05:18:37.580Z,5.5
2019-02-10T05:19:46.798Z,5.5
2019-02-10T05:20:56.049Z,5.5
2019-02-10T05:22:05.290Z,5.4
2019-02-10T05:23:14.545Z,5.5
2019-02-10T05:24:23.792Z,5.4
2019-02-10T05:25:33.025Z,5.5
2019-02-10T05:26:42.285Z,5.4
2019-02-10T05:27:51.526Z,5.5
2019-02-10T05:29:00.789Z,5.5
2019-02-10T05:30:10.100Z,5.5
2019-02-10T05:31:19.288Z,5.6
2019-02-10T05:32:28.530Z,5.5
2019-02-10T05:33:37.781Z,5.5
2019-02-10T05:34:47.031Z,5.6
2019-02-10T05:35:56.273Z,5.6
2019-02-10T05:37:05.544Z,5.5
2019-02-10T05:38:14.790Z,5.6
2019-02-10T05:39:24.022Z,5.5
2019-02-10T05:40:33.279Z,5.6
2019-02-10T05:41:42.540Z,5.5
2019-02-10T05:42:51.795Z,5.6
2019-02-10T05:44:01.021Z,5.6
2019-02-10T05:45:10.277Z,5.6
2019-02-10T05:46:19.543Z,5.6
2019-02-10T05:47:28.781Z,5.6
2019-02-10T05:48:38.032Z,5.6
2019-02-10T05:49:47.319Z,5.6
2019-02-10T05:50:56.563Z,5.6
2019-02-10T05:52:05.797Z,5.6
2019-02-10T05:53:15.078Z,5.6
2019-02-10T05:54:24.298Z,5.6
2019-02-10T05:55:33.551Z,5.6
2019-02-10T05:56:42.791Z,5.6
2019-02-10T05:57:52.049Z,5.6
2019-02-10T05:59:01.393Z,5.7
2019-02-10T06:00:10.567Z,5.7
2019-02-10T06:01:19.804Z,5.6
2019-02-10T06:02:29.059Z,5.7
2019-02-10T06:03:38.319Z,5.7
2019-02-10T06:04:47.583Z,5.7
2019-02-10T06:05:56.811Z,5.7
2019-02-10T06:07:06.067Z,5.7
2019-02-10T06:08:15.333Z,5.7
2019-02-10T06:09:24.585Z,5.7
2019-02-10T06:10:33.831Z,5.7
2019-02-10T06:11:43.084Z,5.7
2019-02-10T06:12:52.430Z,5.7
2019-02-10T06:14:01.590Z,5.7
2019-02-10T06:15:10.848Z,5.7
2019-02-10T06:16:20.157Z,5.7
2019-02-10T06:17:29.352Z,5.7
2019-02-10T06:18:38.751Z,5.8
2019-02-10T06:19:47.889Z,5.7
2019-02-10T06:20:57.124Z,5.8
2019-02-10T06:22:06.435Z,5.8
2019-02-10T06:23:15.632Z,5.8
2019-02-10T06:24:24.885Z,5.8
2019-02-10T06:25:34.149Z,5.8
2019-02-10T06:26:43.397Z,5.8
2019-02-10T06:27:52.682Z,5.8
2019-02-10T06:29:01.916Z,5.8
2019-02-10T06:30:11.188Z,5.8
2019-02-10T06:31:20.486Z,5.8
2019-02-10T06:32:29.685Z,5.8
2019-02-10T06:33:38.946Z,5.8
2019-02-10T06:34:48.244Z,5.9
2019-02-10T06:35:57.487Z,5.8
2019-02-10T06:37:06.757Z,5.9
2019-02-10T06:38:22.076Z,5.9
2019-02-10T06:39:25.299Z,5.9
2019-02-10T06:40:34.528Z,5.9
2019-02-10T06:41:43.775Z,5.9
2019-02-10T06:42:53.020Z,5.9
2019-02-10T06:44:02.321Z,6
2019-02-10T06:45:11.551Z,6
2019-02-10T06:46:20.823Z,5.9
2019-02-10T06:47:30.067Z,5.9
2019-02-10T06:48:39.318Z,5.9
2019-02-10T06:49:48.582Z,6
2019-02-10T06:50:57.838Z,6
2019-02-10T06:52:07.107Z,6
2019-02-10T06:53:16.387Z,6
2019-02-10T06:54:25.677Z,6
2019-02-10T06:55:34.893Z,6
2019-02-10T06:56:44.160Z,6
2019-02-10T06:57:53.407Z,6
2019-02-10T06:59:02.730Z,6.1
2019-02-10T07:00:11.969Z,6.1
2019-02-10T07:01:21.189Z,6.1
2019-02-10T07:02:30.461Z,6
2019-02-10T07:03:39.714Z,6.1
2019-02-10T07:04:48.982Z,6.1
2019-02-10T07:05:58.256Z,6.1
2019-02-10T07:07:07.503Z,6
2019-02-10T07:08:16.767Z,6
2019-02-10T07:09:26.029Z,6
2019-02-10T07:10:35.295Z,6.1
2019-02-10T07:11:44.581Z,6.1
2019-02-10T07:12:53.819Z,6.1
2019-02-10T07:14:03.189Z,6.1
2019-02-10T07:15:12.428Z,6.1
2019-02-10T07:16:21.642Z,6.1
2019-02-10T07:17:30.884Z,6.1
2019-02-10T07:18:40.238Z,6.1
2019-02-10T07:19:49.437Z,6.1
2019-02-10T07:20:58.685Z,6.1
2019-02-10T07:22:07.951Z,6.1
2019-02-10T07:23:17.217Z,6.1
2019-02-10T07:24:26.548Z,6.2
2019-02-10T07:25:35.779Z,6.2
2019-02-10T07:26:45.024Z,6.2
2019-02-10T07:27:54.288Z,6.2
2019-02-10T07:29:03.602Z,6.1
2019-02-10T07:30:12.823Z,6.1
2019-02-10T07:31:22.091Z,6.1
2019-02-10T07:32:31.379Z,6.2
2019-02-10T07:33:40.633Z,6.2
2019-02-10T07:34:50.126Z,6.1
2019-02-10T07:35:59.175Z,6.1
2019-02-10T07:37:08.424Z,6.2
2019-02-10T07:38:17.699Z,6.2
2019-02-10T07:39:26.978Z,6.2
2019-02-10T07:40:36.239Z,6.2
2019-02-10T07:41:45.523Z,6.2
2019-02-10T07:42:54.783Z,6.2
2019-02-10T07:44:04.049Z,6.2
2019-02-10T07:45:13.322Z,6.2
2019-02-10T07:46:22.593Z,6.2
2019-02-10T07:47:31.925Z,6.2
2019-02-10T07:48:41.320Z,6.2
2019-02-10T07:49:50.398Z,6.2
2019-02-10T07:50:59.702Z,6.2
2019-02-10T07:52:09.051Z,6.2
2019-02-10T07:53:18.215Z,6.2
2019-02-10T07:54:27.524Z,6.3
2019-02-10T07:55:36.762Z,6.3
2019-02-10T07:56:46.057Z,6.3
2019-02-10T07:57:55.321Z,6.3
2019-02-10T07:59:04.576Z,6.3
2019-02-10T08:00:13.854Z,6.3
2019-02-10T08:01:23.405Z,6.3
2019-02-10T08:02:32.429Z,6.4
2019-02-10T08:03:41.678Z,6.4
2019-02-10T08:04:50.974Z,6.4
2019-02-10T08:06:00.221Z,6.4
2019-02-10T08:07:09.504Z,6.4
2019-02-10T08:08:18.781Z,6.4
2019-02-10T08:09:28.076Z,6.5
2019-02-10T08:10:37.364Z,6.5
2019-02-10T08:11:46.598Z,6.5
2019-02-10T08:12:55.866Z,6.5
2019-02-10T08:14:05.144Z,6.5
2019-02-10T08:15:14.458Z,6.5
2019-02-10T08:16:23.743Z,6.5
2019-02-10T08:17:32.995Z,6.5
2019-02-10T08:18:42.275Z,6.5
2019-02-10T08:19:51.520Z,6.4
2019-02-10T08:21:00.825Z,6.5
2019-02-10T08:22:10.063Z,6.4
2019-02-10T08:23:19.341Z,6.4
2019-02-10T08:24:28.606Z,6.4
2019-02-10T08:25:37.886Z,6.4
2019-02-10T08:26:47.155Z,6.4
2019-02-10T08:27:56.474Z,6.4
2019-02-10T08:29:05.741Z,6.4
2019-02-10T08:30:15.136Z,6.4
2019-02-10T08:31:24.261Z,6.4
2019-02-10T08:32:33.522Z,6.4
2019-02-10T08:33:42.862Z,6.4
2019-02-10T08:34:52.078Z,6.4
2019-02-10T08:36:01.408Z,6.4
2019-02-10T08:37:10.667Z,6.4
2019-02-10T08:38:19.897Z,6.4
2019-02-10T08:39:29.170Z,6.4
2019-02-10T08:40:38.444Z,6.4
2019-02-10T08:41:47.712Z,6.3
2019-02-10T08:42:57.013Z,6.3
2019-02-10T08:44:06.270Z,6.3
2019-02-10T08:45:15.531Z,6.3
2019-02-10T08:46:25.105Z,6.3
2019-02-10T08:47:34.118Z,6.3
2019-02-10T08:48:43.399Z,6.3
2019-02-10T08:49:52.640Z,6.3
2019-02-10T08:51:03.538Z,6.3
2019-02-10T08:52:12.816Z,6.3
2019-02-10T08:53:22.079Z,6.3
2019-02-10T08:54:31.457Z,6.2
2019-02-10T08:55:40.643Z,6.2
2019-02-10T08:56:49.906Z,6.3
2019-02-10T08:57:59.178Z,6.3
2019-02-10T08:59:08.447Z,6.3
2019-02-10T09:00:17.760Z,6.2
2019-02-10T09:01:27.026Z,6.2
2019-02-10T09:02:36.274Z,6.2
2019-02-10T09:03:45.550Z,6.1
2019-02-10T09:04:54.830Z,6.2
2019-02-10T09:06:04.089Z,6.1
2019-02-10T09:07:13.372Z,6.1
2019-02-10T09:08:22.628Z,6.1
2019-02-10T09:09:31.894Z,6.2
2019-02-10T09:10:41.183Z,6.1
2019-02-10T09:11:50.502Z,6.1
2019-02-10T09:12:59.709Z,6
2019-02-10T09:14:09.002Z,6
2019-02-10T09:15:18.245Z,6
2019-02-10T09:16:27.516Z,6
2019-02-10T09:17:36.780Z,5.9
2019-02-10T09:18:46.045Z,5.9
2019-02-10T09:19:55.317Z,6
2019-02-10T09:21:04.625Z,6
2019-02-10T09:22:13.859Z,5.9
2019-02-10T09:23:23.117Z,5.9
2019-02-10T09:24:32.401Z,5.9
2019-02-10T09:25:41.649Z,5.9
2019-02-10T09:26:50.921Z,6
2019-02-10T09:28:00.181Z,5.9
2019-02-10T09:29:09.471Z,5.9
2019-02-10T09:30:18.721Z,5.9
2019-02-10T09:31:27.982Z,5.9
2019-02-10T09:32:37.263Z,5.9
2019-02-10T09:33:46.555Z,5.9
2019-02-10T09:34:55.818Z,5.9
2019-02-10T09:36:05.035Z,5.9
2019-02-10T09:37:14.323Z,6
2019-02-10T09:38:23.664Z,6
2019-02-10T09:39:32.903Z,6
2019-02-10T09:40:42.082Z,6
2019-02-10T09:41:51.349Z,6
2019-02-10T09:43:00.604Z,6
2019-02-10T09:44:09.870Z,6
2019-02-10T09:45:19.143Z,6
2019-02-10T09:46:28.419Z,6
2019-02-10T09:47:37.708Z,6
2019-02-10T09:48:46.950Z,6
2019-02-10T09:49:56.219Z,6.1
2019-02-10T09:51:05.459Z,6
2019-02-10T09:52:14.740Z,6.1
2019-02-10T09:53:23.996Z,6.1
2019-02-10T09:54:33.267Z,6.1
2019-02-10T09:55:42.525Z,6.1
2019-02-10T09:56:51.797Z,6.1
2019-02-10T09:58:01.066Z,6
2019-02-10T09:59:10.327Z,6
2019-02-10T10:00:19.602Z,6
2019-02-10T10:01:28.863Z,6.1
2019-02-10T10:02:38.127Z,6.1
2019-02-10T10:03:47.427Z,6.1
2019-02-10T10:04:56.663Z,6.1
2019-02-10T10:06:05.931Z,6
2019-02-10T10:07:15.198Z,6
2019-02-10T10:08:24.484Z,6
2019-02-10T10:09:33.733Z,6
2019-02-10T10:10:42.992Z,6
2019-02-10T10:11:52.267Z,6
2019-02-10T10:13:01.519Z,6
2019-02-10T10:14:10.815Z,6
2019-02-10T10:15:20.068Z,5.9
2019-02-10T10:16:29.313Z,6
2019-02-10T10:17:38.600Z,6
2019-02-10T10:18:47.842Z,6.1
2019-02-10T10:19:57.132Z,6.1
2019-02-10T10:21:06.418Z,6.1
2019-02-10T10:22:15.637Z,6.1
2019-02-10T10:23:24.892Z,6.1
2019-02-10T10:24:34.156Z,6
2019-02-10T10:25:43.478Z,6
2019-02-10T10:26:52.702Z,6.1
2019-02-10T10:28:01.943Z,6
2019-02-10T10:29:11.209Z,6
2019-02-10T10:30:20.469Z,6.2
2019-02-10T10:31:29.746Z,6.2
2019-02-10T10:32:39.047Z,6.2
2019-02-10T10:33:48.303Z,6.1
2019-02-10T10:34:57.569Z,6.1
2019-02-10T10:36:06.805Z,6.1
2019-02-10T10:37:16.091Z,6.2
2019-02-10T10:38:25.363Z,6.2
2019-02-10T10:39:34.608Z,6.2
2019-02-10T10:40:43.905Z,6.2
2019-02-10T10:41:53.192Z,6.2
2019-02-10T10:43:02.438Z,6.3
2019-02-10T10:44:11.665Z,6.3
2019-02-10T10:45:20.945Z,6.4
2019-02-10T10:46:30.247Z,6.3
2019-02-10T10:47:39.475Z,6.3
2019-02-10T10:48:48.742Z,6.4
2019-02-10T10:49:58.056Z,6.3
2019-02-10T10:51:07.327Z,6.3
2019-02-10T10:52:16.607Z,6.4
2019-02-10T10:53:25.826Z,6.4
2019-02-10T10:54:42.485Z,6.5
2019-02-10T10:55:44.411Z,6.5
2019-02-10T10:56:53.636Z,6.6
2019-02-10T10:58:02.905Z,6.6
2019-02-10T10:59:12.164Z,6.5
2019-02-10T11:00:21.440Z,6.5
2019-02-10T11:01:30.713Z,6.5
2019-02-10T11:02:39.984Z,6.5
2019-02-10T11:03:49.352Z,6.5
2019-02-10T11:04:58.558Z,6.5
2019-02-10T11:06:07.793Z,6.5
2019-02-10T11:07:17.074Z,6.6
2019-02-10T11:08:26.436Z,6.6
2019-02-10T11:09:35.880Z,6.6
2019-02-10T11:10:44.883Z,6.7
2019-02-10T11:11:54.187Z,6.7
2019-02-10T11:13:03.431Z,6.7
2019-02-10T11:14:12.708Z,6.7
2019-02-10T11:15:21.987Z,6.7
2019-02-10T11:16:31.463Z,6.8
2019-02-10T11:17:40.533Z,6.7
2019-02-10T11:18:49.809Z,6.8
2019-02-10T11:19:59.074Z,6.8
2019-02-10T11:21:08.352Z,6.8
2019-02-10T11:22:17.660Z,6.8
2019-02-10T11:23:26.916Z,6.8
2019-02-10T11:24:36.194Z,6.9
2019-02-10T11:25:45.468Z,6.8
2019-02-10T11:26:54.912Z,6.9
2019-02-10T11:28:04.039Z,6.9
2019-02-10T11:29:13.381Z,6.9
2019-02-10T11:30:22.587Z,6.9
2019-02-10T11:31:31.862Z,6.9
2019-02-10T11:32:41.160Z,6.9
2019-02-10T11:33:50.458Z,7
2019-02-10T11:34:59.713Z,7.1
2019-02-10T11:36:09.041Z,7
2019-02-10T11:37:18.269Z,7
2019-02-10T11:38:27.626Z,6.9
2019-02-10T11:39:43.514Z,7.1
2019-02-10T11:40:46.236Z,7.1
2019-02-10T11:41:55.426Z,7.1
2019-02-10T11:43:04.720Z,7.1
2019-02-10T11:44:14.093Z,7.1
2019-02-10T11:45:23.279Z,7.1
2019-02-10T11:46:32.753Z,7.1
2019-02-10T11:47:41.894Z,7.1
2019-02-10T11:48:51.143Z,7.3
2019-02-10T11:50:00.411Z,7.3
2019-02-10T11:51:09.719Z,7.3
2019-02-10T11:52:18.993Z,7.3
2019-02-10T11:53:28.316Z,7.3
2019-02-10T11:54:37.581Z,7.2
2019-02-10T11:55:46.878Z,7.3
2019-02-10T11:56:56.188Z,7.3
2019-02-10T11:58:05.478Z,7.4
2019-02-10T11:59:14.797Z,7.3
2019-02-10T12:00:24.118Z,7.4
2019-02-10T12:01:33.365Z,7.5
2019-02-10T12:02:42.645Z,7.5
2019-02-10T12:03:51.953Z,7.5
2019-02-10T12:05:01.277Z,7.5
2019-02-10T12:06:10.525Z,7.5
2019-02-10T12:07:19.827Z,7.4
2019-02-10T12:08:35.518Z,7.4
2019-02-10T12:09:38.412Z,7.5
2019-02-10T12:10:47.885Z,7.5
2019-02-10T12:11:57.747Z,7.4
2019-02-10T12:13:06.320Z,7.4
2019-02-10T12:14:15.610Z,7.4
2019-02-10T12:15:24.913Z,7.5
2019-02-10T12:16:34.250Z,7.5
2019-02-10T12:17:43.534Z,7.6
2019-02-10T12:18:52.878Z,7.6
2019-02-10T12:20:02.153Z,7.6
2019-02-10T12:21:11.580Z,7.6
2019-02-10T12:22:20.723Z,7.6
2019-02-10T12:23:30.016Z,7.5
2019-02-10T12:24:40.040Z,7.6
2019-02-10T12:25:48.614Z,7.6
2019-02-10T12:26:57.913Z,7.6
2019-02-10T12:28:07.471Z,7.6
2019-02-10T12:29:16.650Z,7.6
2019-02-10T12:30:25.936Z,7.7
2019-02-10T12:31:35.121Z,7.6
2019-02-10T12:32:44.461Z,7.6
2019-02-10T12:33:53.751Z,7.6
2019-02-10T12:35:03.035Z,7.6
2019-02-10T12:36:12.426Z,7.6
2019-02-10T12:37:21.672Z,7.8
2019-02-10T12:38:30.946Z,7.7
2019-02-10T12:39:40.259Z,7.7
2019-02-10T12:40:49.561Z,7.7
2019-02-10T12:41:58.860Z,7.7
2019-02-10T12:43:08.167Z,7.7
2019-02-10T12:44:17.586Z,7.7
2019-02-10T12:45:26.798Z,7.7
2019-02-10T12:46:36.102Z,7.7
2019-02-10T12:47:45.398Z,7.7
2019-02-10T12:48:54.694Z,7.7
2019-02-10T12:50:04.018Z,7.7
2019-02-10T12:51:13.401Z,7.6
2019-02-10T12:52:22.630Z,7.6
2019-02-10T12:53:31.931Z,7.6
2019-02-10T12:54:41.345Z,7.6
2019-02-10T12:55:50.540Z,7.7
2019-02-10T12:56:59.914Z,7.7
2019-02-10T12:58:09.308Z,7.7
2019-02-10T12:59:18.499Z,7.6
2019-02-10T13:00:27.771Z,7.6
2019-02-10T13:01:37.099Z,7.6
2019-02-10T13:02:46.443Z,7.6
2019-02-10T13:03:55.690Z,7.6
2019-02-10T13:05:05.004Z,7.6
2019-02-10T13:06:14.363Z,7.5
2019-02-10T13:07:23.660Z,7.6
2019-02-10T13:08:33.045Z,7.6
2019-02-10T13:09:42.250Z,7.6
2019-02-10T13:10:51.533Z,7.6
2019-02-10T13:12:00.844Z,7.6
2019-02-10T13:13:10.141Z,7.6
2019-02-10T13:14:19.451Z,7.6
2019-02-10T13:15:29.141Z,7.6
2019-02-10T13:16:38.080Z,7.6
2019-02-10T13:17:47.412Z,7.7
2019-02-10T13:18:56.710Z,7.7
2019-02-10T13:20:06.081Z,7.7
2019-02-10T13:21:15.366Z,7.7
2019-02-10T13:22:24.637Z,7.7
2019-02-10T13:23:33.922Z,7.7
2019-02-10T13:24:43.216Z,7.7
2019-02-10T13:25:52.564Z,7.8
2019-02-10T13:27:01.873Z,7.8
2019-02-10T13:28:11.151Z,7.8
2019-02-10T13:29:20.491Z,7.8
2019-02-10T13:30:29.960Z,7.8
2019-02-10T13:31:39.156Z,7.9
2019-02-10T13:32:48.383Z,7.9
2019-02-10T13:33:57.712Z,7.8
2019-02-10T13:35:07.044Z,7.9
2019-02-10T13:36:16.437Z,7.8
2019-02-10T13:37:25.651Z,7.9
2019-02-10T13:38:34.956Z,7.9
2019-02-10T13:39:44.358Z,7.9
2019-02-10T13:40:53.580Z,7.8
2019-02-10T13:42:02.949Z,7.9
2019-02-10T13:43:12.199Z,7.9
2019-02-10T13:44:21.535Z,7.9
2019-02-10T13:45:30.857Z,7.9
2019-02-10T13:46:40.292Z,8
2019-02-10T13:47:49.459Z,8
2019-02-10T13:48:58.892Z,7.9
2019-02-10T13:50:08.102Z,8
2019-02-10T13:51:17.442Z,8
2019-02-10T13:52:26.714Z,7.9
2019-02-10T13:53:36.035Z,7.9
2019-02-10T13:54:45.339Z,8
2019-02-10T13:55:54.690Z,7.9
2019-02-10T13:57:04.120Z,8
2019-02-10T13:58:13.277Z,8.1
2019-02-10T13:59:22.691Z,8
2019-02-10T14:00:31.955Z,8
2019-02-10T14:01:41.310Z,8
2019-02-10T14:02:50.535Z,8
2019-02-10T14:03:59.849Z,7.9
2019-02-10T14:05:09.151Z,7.9
2019-02-10T14:06:18.554Z,7.8
2019-02-10T14:07:27.777Z,7.9
2019-02-10T14:08:37.090Z,7.9
2019-02-10T14:09:46.423Z,7.9
2019-02-10T14:10:55.711Z,7.9
2019-02-10T14:12:05.027Z,7.9
2019-02-10T14:13:14.329Z,7.8
2019-02-10T14:14:23.639Z,7.8
2019-02-10T14:15:32.951Z,7.8
2019-02-10T14:16:42.262Z,7.8
2019-02-10T14:17:51.590Z,7.8
2019-02-10T14:19:00.881Z,7.8
2019-02-10T14:20:10.183Z,7.8
2019-02-10T14:21:19.509Z,7.8
2019-02-10T14:22:28.816Z,7.9
2019-02-10T14:23:38.112Z,7.8
2019-02-10T14:24:47.501Z,7.8
2019-02-10T14:25:56.884Z,7.8
2019-02-10T14:27:06.044Z,7.9
2019-02-10T14:28:15.458Z,7.9
2019-02-10T14:29:24.670Z,7.9
2019-02-10T14:30:33.981Z,7.9
2019-02-10T14:31:43.292Z,7.8
2019-02-10T14:32:52.683Z,7.8
2019-02-10T14:34:03.385Z,7.8
2019-02-10T14:35:11.268Z,7.9
2019-02-10T14:36:20.527Z,7.9
2019-02-10T14:37:29.876Z,7.9
2019-02-10T14:38:39.235Z,7.9
2019-02-10T14:39:48.491Z,7.9
2019-02-10T14:40:57.771Z,7.9
2019-02-10T14:42:07.085Z,7.8
2019-02-10T14:43:16.401Z,7.9
2019-02-10T14:44:25.694Z,7.9
2019-02-10T14:45:35.017Z,7.8
2019-02-10T14:46:44.423Z,7.8
2019-02-10T14:47:53.630Z,7.8
2019-02-10T14:49:02.952Z,7.8
2019-02-10T14:50:12.302Z,7.8
2019-02-10T14:51:21.558Z,7.9
2019-02-10T14:52:30.883Z,7.9
2019-02-10T14:53:40.214Z,7.9
2019-02-10T14:54:49.523Z,7.9
2019-02-10T14:55:58.798Z,7.9
2019-02-10T14:57:08.097Z,7.9
2019-02-10T14:58:17.427Z,7.9
2019-02-10T14:59:26.734Z,8
2019-02-10T15:00:36.048Z,7.9
2019-02-10T15:01:45.334Z,7.9
2019-02-10T15:02:54.647Z,7.9
2019-02-10T15:04:03.976Z,7.9
2019-02-10T15:05:13.273Z,7.9
2019-02-10T15:06:22.605Z,7.9
2019-02-10T15:07:31.919Z,7.8
2019-02-10T15:08:41.226Z,7.8
2019-02-10T15:09:50.514Z,7.8
2019-02-10T15:10:59.844Z,7.8
2019-02-10T15:12:09.116Z,7.8
2019-02-10T15:13:18.468Z,7.8
2019-02-10T15:14:27.769Z,7.8
2019-02-10T15:15:37.047Z,7.8
2019-02-10T15:16:46.441Z,7.8
2019-02-10T15:17:55.668Z,7.8
2019-02-10T15:19:04.982Z,7.8
2019-02-10T15:20:14.273Z,7.8
2019-02-10T15:21:23.595Z,7.8
2019-02-10T15:22:32.906Z,7.8
2019-02-10T15:23:42.218Z,7.8
2019-02-10T15:24:51.511Z,7.8
2019-02-10T15:26:02.388Z,7.8
2019-02-10T15:27:10.150Z,7.8
2019-02-10T15:28:19.501Z,7.8
2019-02-10T15:29:28.746Z,7.8
2019-02-10T15:30:38.049Z,7.8
2019-02-10T15:31:47.363Z,7.8
2019-02-10T15:32:56.741Z,7.8
2019-02-10T15:34:05.988Z,7.9
2019-02-10T15:35:15.263Z,7.9
2019-02-10T15:36:24.681Z,7.9
2019-02-10T15:37:33.888Z,7.9
2019-02-10T15:38:43.183Z,7.9
2019-02-10T15:39:52.495Z,7.9
2019-02-10T15:41:01.811Z,7.8
2019-02-10T15:42:11.150Z,7.9
2019-02-10T15:43:20.449Z,7.9
2019-02-10T15:44:29.733Z,7.9
2019-02-10T15:45:39.047Z,7.9
2019-02-10T15:46:48.353Z,7.9
2019-02-10T15:47:57.662Z,7.9
2019-02-10T15:49:06.995Z,7.9
2019-02-10T15:50:16.374Z,8
2019-02-10T15:51:31.472Z,7.9
2019-02-10T15:52:34.906Z,7.9
2019-02-10T15:53:44.190Z,7.9
2019-02-10T15:54:53.502Z,7.9
2019-02-10T15:56:02.808Z,7.9
2019-02-10T15:57:12.115Z,7.9
2019-02-10T15:58:21.431Z,8
2019-02-10T15:59:30.736Z,7.9
2019-02-10T16:00:40.123Z,7.9
2019-02-10T16:01:49.379Z,7.9